Time;durP1;ratioP1;P1;durP2;ratioP2;P2;SDS_P1;SDS_P2;PMS_P1;PMS_P2;Temp;Humidity;BMP_temperature;BMP_pressure;BME280_temperature;BME280_humidity;BME280_pressure;Samples;Min_cycle;Max_cycle;Signal;HPM_P1;HPM_P2
2022/11/18 00:01:10;;;;;;;66.97;41.97;;;7.00;99.90;;;;;;5022021;28;20090;-72
2022/11/18 00:03:37;;;;;;;74.17;44.87;;;7.00;99.90;;;;;;5021891;28;20077;-72
2022/11/18 00:06:02;;;;;;;55.75;40.90;;;7.00;99.90;;;;;;5021469;28;20503;-72
2022/11/18 00:08:28;;;;;;;57.20;41.67;;;7.00;99.90;;;;;;5022264;28;20133;-72
2022/11/18 00:10:54;;;;;;;60.90;41.40;;;7.00;99.90;;;;;;5021104;28;20070;-72
2022/11/18 00:16:09;;;;;;;49.63;38.60;;;7.00;99.90;;;;;;5021531;28;20046;-72
2022/11/18 00:18:36;;;;;;;59.92;40.47;;;7.00;99.90;;;;;;5021388;28;20458;-72
2022/11/18 00:21:03;;;;;;;58.55;42.22;;;7.00;99.90;;;;;;5022137;28;20049;-72
2022/11/18 00:23:29;;;;;;;72.25;43.83;;;7.00;99.90;;;;;;5022068;28;20057;-72
2022/11/18 00:26:00;;;;;;;54.70;40.42;;;7.00;99.90;;;;;;5020952;28;20042;-72
2022/11/18 00:28:25;;;;;;;60.70;42.03;;;7.00;99.90;;;;;;5021586;28;20366;-72
2022/11/18 00:30:51;;;;;;;61.35;41.58;;;7.00;99.90;;;;;;5021445;28;20046;-72
2022/11/18 00:33:16;;;;;;;63.90;43.53;;;6.90;99.90;;;;;;5041032;28;20041;-72
2022/11/18 00:35:42;;;;;;;72.38;43.42;;;7.00;99.90;;;;;;5041060;28;20338;-72
2022/11/18 00:38:07;;;;;;;89.75;47.50;;;7.00;99.90;;;;;;5041144;28;20076;-72
2022/11/18 00:40:33;;;;;;;69.10;43.15;;;7.00;99.90;;;;;;5041550;28;20080;-72
2022/11/18 00:42:58;;;;;;;82.95;46.35;;;7.00;99.90;;;;;;5040759;28;20037;-73
2022/11/18 00:45:24;;;;;;;67.50;43.20;;;7.00;99.90;;;;;;5041840;28;20110;-72
2022/11/18 00:47:49;;;;;;;58.92;40.30;;;7.00;99.90;;;;;;5041146;28;20049;-72
2022/11/18 00:50:15;;;;;;;61.85;40.70;;;7.00;99.90;;;;;;5041018;28;20456;-72
2022/11/18 00:52:41;;;;;;;70.25;42.80;;;7.00;99.90;;;;;;5040937;28;20052;-72
2022/11/18 00:55:07;;;;;;;67.43;43.05;;;7.00;99.90;;;;;;5040281;28;20037;-72
2022/11/18 00:57:32;;;;;;;63.20;40.83;;;6.90;99.90;;;;;;5023654;28;20053;-71
2022/11/18 00:59:58;;;;;;;68.40;40.80;;;7.00;99.90;;;;;;5041352;28;20045;-71
2022/11/18 01:02:24;;;;;;;73.18;42.55;;;7.00;99.90;;;;;;5034494;28;20061;-72
2022/11/18 01:04:49;;;;;;;60.83;41.78;;;7.00;99.90;;;;;;5019636;28;20128;-72
2022/11/18 01:07:15;;;;;;;72.78;44.67;;;7.00;99.90;;;;;;5018070;28;20343;-73
2022/11/18 01:09:40;;;;;;;64.97;44.70;;;7.00;99.90;;;;;;5018689;28;20050;-72
2022/11/18 01:14:52;;;;;;;70.55;44.67;;;7.00;99.90;;;;;;5037614;28;20493;-73
2022/11/18 01:17:19;;;;;;;67.13;44.00;;;7.00;99.90;;;;;;5037436;28;20045;-72
2022/11/18 01:19:44;;;;;;;69.25;43.50;;;7.00;99.90;;;;;;5037607;28;20068;-72
2022/11/18 01:22:11;;;;;;;65.15;41.50;;;6.90;99.90;;;;;;5020084;28;20083;-72
2022/11/18 01:24:37;;;;;;;59.58;41.20;;;7.00;99.90;;;;;;5037406;28;20081;-73
2022/11/18 01:27:02;;;;;;;65.38;40.40;;;6.90;99.90;;;;;;5037676;28;20084;-72
2022/11/18 01:29:28;;;;;;;65.20;41.25;;;6.90;99.90;;;;;;5037536;28;20041;-72
2022/11/18 01:31:53;;;;;;;64.30;40.65;;;6.90;99.90;;;;;;5031077;28;20041;-72
2022/11/18 01:34:19;;;;;;;79.90;43.75;;;6.90;99.90;;;;;;5017428;28;20042;-72
2022/11/18 01:36:45;;;;;;;65.45;41.05;;;6.90;99.90;;;;;;5017500;28;20370;-72
2022/11/18 01:39:10;;;;;;;72.30;40.55;;;6.90;99.90;;;;;;5017783;28;20042;-72
2022/11/18 01:41:36;;;;;;;63.35;38.90;;;6.90;99.90;;;;;;5017519;28;20046;-72
2022/11/18 01:44:05;;;;;;;69.78;41.22;;;6.90;99.90;;;;;;5017273;28;20129;-72
2022/11/18 01:46:32;;;;;;;60.90;39.60;;;6.90;99.90;;;;;;5016959;28;20473;-72
2022/11/18 01:49:12;;;;;;;62.55;39.33;;;6.90;99.90;;;;;;5017535;28;20412;-72
2022/11/18 01:51:55;;;;;;;70.70;40.53;;;6.90;99.90;;;;;;5037032;28;20045;-71
2022/11/18 01:54:30;;;;;;;65.43;40.60;;;6.90;99.90;;;;;;5037185;28;20128;-72
2022/11/18 01:57:01;;;;;;;64.35;39.15;;;6.90;99.90;;;;;;5037211;28;20330;-72
2022/11/18 01:59:32;;;;;;;62.88;38.70;;;6.90;99.90;;;;;;5037196;28;20045;-73
2022/11/18 02:02:01;;;;;;;63.20;39.50;;;6.90;99.90;;;;;;5025797;28;20049;-72
2022/11/18 02:04:27;;;;;;;69.80;41.60;;;6.90;99.90;;;;;;5017588;28;20042;-73
2022/11/18 02:06:54;;;;;;;65.55;39.30;;;6.90;99.90;;;;;;5019546;28;20106;-73
2022/11/18 02:09:20;;;;;;;82.45;42.85;;;6.90;99.90;;;;;;5036043;28;20060;-72
2022/11/18 02:11:49;;;;;;;90.53;44.90;;;6.90;99.90;;;;;;5036493;28;20451;-72
2022/11/18 02:14:18;;;;;;;82.72;43.00;;;6.90;99.90;;;;;;5002160;28;20085;-72
2022/11/18 02:17:21;;;;;;;65.68;38.13;;;6.80;99.90;;;;;;5024790;28;20053;-72
2022/11/18 02:19:47;;;;;;;60.00;38.33;;;6.90;99.90;;;;;;4999361;28;20136;-72
2022/11/18 02:22:54;;;;;;;74.97;41.03;;;6.90;99.90;;;;;;4999183;28;20129;-72
2022/11/18 02:25:58;;;;;;;73.72;42.20;;;6.90;99.90;;;;;;5016377;28;20081;-72
2022/11/18 02:28:33;;;;;;;;;;;6.90;99.90;;;;;;5012378;28;20521;-73
2022/11/18 02:31:15;;;;;;;99.28;43.10;;;6.90;99.90;;;;;;5016108;28;20008;-72
2022/11/18 02:34:06;;;;;;;61.25;37.55;;;6.80;99.90;;;;;;5017109;28;20064;-72
2022/11/18 02:36:45;;;;;;;81.82;38.60;;;6.90;99.90;;;;;;5018298;28;20057;-72
2022/11/18 02:39:23;;;;;;;60.42;36.30;;;6.90;99.90;;;;;;5036035;28;20102;-71
2022/11/18 02:41:53;;;;;;;63.03;37.03;;;6.90;99.90;;;;;;5036114;28;20045;-73
2022/11/18 02:44:21;;;;;;;59.97;35.65;;;6.90;99.90;;;;;;5035392;28;20374;-72
2022/11/18 02:46:51;;;;;;;67.63;36.53;;;6.90;99.90;;;;;;5036613;28;20055;-72
2022/11/18 02:49:39;;;;;;;61.20;37.28;;;6.80;99.90;;;;;;5036065;28;20068;-72
2022/11/18 02:52:07;;;;;;;58.63;35.33;;;6.80;99.90;;;;;;5035710;28;20072;-73
2022/11/18 02:54:35;;;;;;;61.00;36.03;;;6.80;99.90;;;;;;5036410;28;20041;-73
2022/11/18 02:57:03;;;;;;;62.10;37.47;;;6.80;99.90;;;;;;5035978;28;20050;-73
2022/11/18 02:59:28;;;;;;;64.18;36.58;;;6.80;99.90;;;;;;5024649;28;20366;-72
2022/11/18 03:01:54;;;;;;;55.13;35.17;;;6.70;99.90;;;;;;4998582;28;20037;-72
2022/11/18 03:04:21;;;;;;;73.53;38.72;;;6.80;99.90;;;;;;5015915;28;20045;-73
2022/11/18 03:06:55;;;;;;;66.63;36.60;;;6.80;99.90;;;;;;5015900;28;20042;-72
2022/11/18 03:09:27;;;;;;;;;;;6.80;99.90;;;;;;4998250;28;20049;-73
2022/11/18 03:12:22;;;;;;;55.20;35.42;;;6.80;99.90;;;;;;5015661;28;19921;-73
2022/11/18 03:14:48;;;;;;;66.55;36.47;;;6.70;99.90;;;;;;5015500;28;20129;-73
2022/11/18 03:17:19;;;;;;;57.65;35.78;;;6.70;99.90;;;;;;5015788;28;20407;-72
2022/11/18 03:20:06;;;;;;;56.20;34.92;;;6.80;99.90;;;;;;5015621;28;20085;-72
2022/11/18 03:22:58;;;;;;;56.58;33.70;;;6.80;99.90;;;;;;5035312;28;20457;-72
2022/11/18 03:25:34;;;;;;;49.08;31.80;;;6.80;99.90;;;;;;5034812;28;20476;-72
2022/11/18 03:28:13;;;;;;;51.17;33.88;;;6.80;99.90;;;;;;5031143;28;20038;-73
2022/11/18 03:30:44;;;;;;;59.05;35.88;;;6.70;99.90;;;;;;5015315;28;20038;-72
2022/11/18 03:33:16;;;;;;;50.20;33.13;;;6.70;99.90;;;;;;5015921;28;20057;-73
2022/11/18 03:35:46;;;;;;;47.03;32.22;;;6.70;99.90;;;;;;5015951;28;20076;-73
2022/11/18 03:38:21;;;;;;;45.88;32.60;;;6.70;99.90;;;;;;5018048;28;20068;-72
2022/11/18 03:41:01;;;;;;;48.38;32.28;;;6.70;99.90;;;;;;5035487;28;20049;-72
2022/11/18 03:43:33;;;;;;;52.80;33.53;;;6.70;99.90;;;;;;5025872;28;20068;-72
2022/11/18 03:46:06;;;;;;;55.95;33.95;;;6.70;99.90;;;;;;4998083;28;20049;-72
2022/11/18 03:48:40;;;;;;;50.45;33.88;;;6.70;99.90;;;;;;5015503;28;20185;-73
2022/11/18 03:51:09;;;;;;;51.95;33.95;;;6.60;99.90;;;;;;5015261;28;20061;-72
2022/11/18 03:53:50;;;;;;;48.03;32.10;;;6.70;99.90;;;;;;5015924;28;20075;-72
2022/11/18 03:56:20;;;;;;;52.38;33.35;;;6.60;99.90;;;;;;5015225;28;20053;-73
2022/11/18 03:58:49;;;;;;;45.55;32.03;;;6.70;99.90;;;;;;5015176;28;20149;-73
2022/11/18 04:01:27;;;;;;;45.40;31.73;;;6.60;99.90;;;;;;4997543;28;20077;-73
2022/11/18 04:03:53;;;;;;;50.65;32.47;;;6.60;99.90;;;;;;5015395;28;20038;-73
2022/11/18 04:06:49;;;;;;;42.60;30.92;;;6.60;99.90;;;;;;5015475;28;20398;-73
2022/11/18 04:09:22;;;;;;;42.40;30.50;;;6.60;99.90;;;;;;4994970;28;20049;-73
2022/11/18 04:12:02;;;;;;;51.67;32.50;;;6.60;99.90;;;;;;5015113;28;20046;-73
2022/11/18 04:14:36;;;;;;;48.22;31.88;;;6.60;99.90;;;;;;4978472;28;20046;-72
2022/11/18 04:17:14;;;;;;;47.40;30.55;;;6.60;99.90;;;;;;4995992;28;20367;-73
2022/11/18 04:19:40;;;;;;;45.60;30.13;;;6.60;99.90;;;;;;4995359;28;20390;-73
2022/11/18 04:22:06;;;;;;;48.97;31.45;;;6.60;99.90;;;;;;4995978;28;20054;-73
2022/11/18 04:24:32;;;;;;;48.22;31.38;;;6.60;99.90;;;;;;4995983;28;20054;-73
2022/11/18 04:26:58;;;;;;;43.97;29.65;;;6.60;99.90;;;;;;4998103;28;20068;-73
2022/11/18 04:29:24;;;;;;;39.83;28.60;;;6.60;99.90;;;;;;5014146;28;20101;-74
2022/11/18 04:31:50;;;;;;;40.38;29.20;;;6.60;99.90;;;;;;5014763;28;20148;-72
2022/11/18 04:34:15;;;;;;;49.13;30.25;;;6.60;99.90;;;;;;5015016;28;20454;-73
2022/11/18 04:36:41;;;;;;;44.15;28.23;;;6.60;99.90;;;;;;5014577;28;20048;-74
2022/11/18 04:39:07;;;;;;;42.53;29.30;;;6.60;99.90;;;;;;5014854;28;20045;-72
2022/11/18 04:44:16;;;;;;;42.95;29.45;;;6.50;99.90;;;;;;5018368;28;20054;-73
2022/11/18 04:46:43;;;;;;;36.15;27.52;;;6.50;99.90;;;;;;5018511;28;20506;-72
2022/11/18 04:49:11;;;;;;;37.20;26.75;;;6.50;99.90;;;;;;5018584;28;20478;-74
2022/11/18 04:51:38;;;;;;;39.63;28.45;;;6.50;99.90;;;;;;5038208;28;20044;-73
2022/11/18 04:54:04;;;;;;;47.92;30.65;;;6.50;99.90;;;;;;5038276;28;20049;-72
2022/11/18 04:56:29;;;;;;;49.22;30.40;;;6.40;99.90;;;;;;5038680;28;20112;-72
2022/11/18 04:58:56;;;;;;;51.72;31.48;;;6.50;99.90;;;;;;5021080;28;20081;-72
2022/11/18 05:01:22;;;;;;;46.78;29.42;;;6.40;99.90;;;;;;5038010;28;20053;-72
2022/11/18 05:03:48;;;;;;;47.63;28.90;;;6.40;99.90;;;;;;5027677;28;20037;-72
2022/11/18 05:06:13;;;;;;;55.30;30.65;;;6.40;99.90;;;;;;5018224;28;20122;-72
2022/11/18 05:08:39;;;;;;;56.65;32.03;;;6.40;99.90;;;;;;5018251;28;20422;-73
2022/11/18 05:13:50;;;;;;;47.47;29.67;;;6.40;99.90;;;;;;5017982;28;20133;-72
2022/11/18 05:16:16;;;;;;;52.28;31.55;;;6.40;99.90;;;;;;5000771;28;20138;-72
2022/11/18 05:18:42;;;;;;;56.33;31.60;;;6.40;99.90;;;;;;4998047;28;20069;-72
2022/11/18 05:21:07;;;;;;;68.47;32.80;;;6.40;99.90;;;;;;5000300;28;20431;-73
2022/11/18 05:23:33;;;;;;;55.55;29.75;;;6.30;99.90;;;;;;5017151;28;20132;-72
2022/11/18 05:26:03;;;;;;;56.70;30.90;;;6.30;99.90;;;;;;5017441;28;20074;-73
2022/11/18 05:28:29;;;;;;;58.45;31.45;;;6.40;99.90;;;;;;5037523;28;20045;-73
2022/11/18 05:30:54;;;;;;;56.00;31.50;;;6.40;99.90;;;;;;5037442;28;20045;-73
2022/11/18 05:33:20;;;;;;;60.08;31.95;;;6.40;99.90;;;;;;5038024;28;20041;-73
2022/11/18 05:35:45;;;;;;;74.38;33.88;;;6.30;99.90;;;;;;5037493;28;20139;-73
2022/11/18 05:38:11;;;;;;;56.17;30.67;;;6.40;99.90;;;;;;5036868;28;20041;-73
2022/11/18 05:40:36;;;;;;;59.42;33.47;;;6.30;99.90;;;;;;5018690;28;20052;-73
2022/11/18 05:43:11;;;;;;;59.80;31.63;;;6.30;99.90;;;;;;5017758;28;20115;-72
2022/11/18 05:45:41;;;;;;;62.95;31.50;;;6.30;99.90;;;;;;5017500;28;20042;-74
2022/11/18 05:48:07;;;;;;;61.20;31.90;;;6.30;99.90;;;;;;5017625;28;20042;-72
2022/11/18 05:50:35;;;;;;;68.75;33.30;;;6.30;99.90;;;;;;5017378;28;20049;-72
2022/11/18 05:53:02;;;;;;;60.00;31.60;;;6.30;99.90;;;;;;5016350;28;20065;-73
2022/11/18 05:56:03;;;;;;;59.58;30.95;;;6.30;99.90;;;;;;5016851;28;20050;-72
2022/11/18 05:58:29;;;;;;;57.45;31.67;;;6.30;99.90;;;;;;5017158;28;20049;-72
2022/11/18 06:00:59;;;;;;;90.85;36.72;;;6.20;99.90;;;;;;5017029;28;20042;-73
2022/11/18 06:03:28;;;;;;;68.20;33.33;;;6.20;99.90;;;;;;5017160;28;20104;-73
2022/11/18 06:05:55;;;;;;;68.75;34.78;;;6.20;99.90;;;;;;5016941;28;20064;-72
2022/11/18 06:08:23;;;;;;;71.93;33.97;;;6.20;99.90;;;;;;5010475;28;20511;-74
2022/11/18 06:10:50;;;;;;;63.53;33.60;;;6.20;99.90;;;;;;5036828;28;20437;-74
2022/11/18 06:13:23;;;;;;;74.50;34.72;;;6.20;99.90;;;;;;5036567;28;20053;-72
2022/11/18 06:15:49;;;;;;;81.22;34.92;;;6.20;99.90;;;;;;5037007;28;20103;-72
2022/11/18 06:18:22;;;;;;;65.97;34.13;;;6.20;99.90;;;;;;5036479;28;20110;-73
2022/11/18 06:20:49;;;;;;;83.53;36.03;;;6.20;99.90;;;;;;5036684;28;20049;-72
2022/11/18 06:23:15;;;;;;;65.47;33.80;;;6.20;99.90;;;;;;5031231;28;20053;-73
2022/11/18 06:25:41;;;;;;;67.18;34.55;;;6.20;99.90;;;;;;5036307;28;20515;-73
2022/11/18 06:28:09;;;;;;;68.95;34.80;;;6.20;99.90;;;;;;5036141;28;20370;-72
2022/11/18 06:30:35;;;;;;;73.60;35.08;;;6.20;99.90;;;;;;5036281;28;20369;-73
2022/11/18 06:33:00;;;;;;;74.05;34.05;;;6.20;99.90;;;;;;5036210;28;20049;-72
2022/11/18 06:35:26;;;;;;;73.55;34.67;;;6.20;99.90;;;;;;5035988;28;20041;-72
2022/11/18 06:37:51;;;;;;;64.70;33.05;;;6.20;99.90;;;;;;5035864;28;20064;-73
2022/11/18 06:40:17;;;;;;;71.00;34.70;;;6.20;99.90;;;;;;5035574;28;20049;-73
2022/11/18 06:45:26;;;;;;;61.03;33.15;;;6.20;99.90;;;;;;5035760;28;20053;-73
2022/11/18 06:47:56;;;;;;;62.17;31.83;;;6.20;99.90;;;;;;5010567;28;20042;-73
2022/11/18 06:50:22;;;;;;;71.28;34.55;;;6.30;99.90;;;;;;5014464;28;20055;-71
2022/11/18 06:52:48;;;;;;;58.35;31.95;;;6.20;99.90;;;;;;5016441;28;20054;-71
2022/11/18 06:55:13;;;;;;;52.63;31.70;;;6.20;99.90;;;;;;5026541;28;20121;-71
2022/11/18 06:57:39;;;;;;;55.20;30.33;;;6.20;99.90;;;;;;5035353;28;20442;-71
2022/11/18 07:00:05;;;;;;;63.60;32.65;;;6.20;99.90;;;;;;5035755;28;20450;-71
2022/11/18 07:02:31;;;;;;;61.97;31.20;;;6.20;99.90;;;;;;5035136;28;20037;-71
2022/11/18 07:04:56;;;;;;;70.80;35.38;;;6.20;99.90;;;;;;5035251;28;20047;-72
2022/11/18 07:07:22;;;;;;;57.67;31.15;;;6.20;99.90;;;;;;5035846;28;20420;-72
2022/11/18 07:09:48;;;;;;;50.40;30.13;;;6.20;99.90;;;;;;5035617;28;20370;-73
2022/11/18 07:12:13;;;;;;;54.45;30.40;;;6.10;99.90;;;;;;5032618;28;20046;-73
2022/11/18 07:14:39;;;;;;;53.13;30.08;;;6.20;99.90;;;;;;5015958;28;20045;-72
2022/11/18 07:17:05;;;;;;;58.95;31.20;;;6.10;99.90;;;;;;4998975;28;20423;-72
2022/11/18 07:19:30;;;;;;;52.03;30.67;;;6.10;99.90;;;;;;5015677;28;20351;-72
2022/11/18 07:21:58;;;;;;;56.25;29.85;;;6.10;99.90;;;;;;5015750;28;20050;-72
2022/11/18 07:24:23;;;;;;;51.58;29.63;;;6.10;99.90;;;;;;5015736;28;20125;-72
2022/11/18 07:26:49;;;;;;;49.17;27.85;;;6.10;99.90;;;;;;5014947;28;20050;-72
2022/11/18 07:29:14;;;;;;;55.00;30.58;;;6.10;99.90;;;;;;5015310;28;20040;-72
2022/11/18 07:31:40;;;;;;;46.25;29.52;;;6.10;99.90;;;;;;5015350;28;20037;-72
2022/11/18 07:34:06;;;;;;;45.95;26.58;;;6.10;99.90;;;;;;5015398;28;20046;-73
2022/11/18 07:36:32;;;;;;;45.30;27.27;;;6.10;99.90;;;;;;5015480;28;20493;-73
2022/11/18 07:38:59;;;;;;;60.13;30.13;;;6.10;99.90;;;;;;5015473;28;20124;-72
2022/11/18 07:41:27;;;;;;;51.28;30.17;;;6.10;99.90;;;;;;5014502;28;20038;-72
2022/11/18 07:43:55;;;;;;;76.88;33.53;;;6.10;99.90;;;;;;5014893;28;20490;-72
2022/11/18 07:46:34;;;;;;;59.15;30.92;;;6.10;99.90;;;;;;5015444;28;20042;-73
2022/11/18 07:49:04;;;;;;;58.22;30.63;;;6.10;99.90;;;;;;4997933;28;20057;-72
2022/11/18 07:51:33;;;;;;;51.92;30.25;;;6.10;99.90;;;;;;5015445;28;20046;-73
2022/11/18 07:53:59;;;;;;;54.25;28.73;;;6.10;99.90;;;;;;5014813;28;20061;-72
2022/11/18 07:56:24;;;;;;;50.50;27.90;;;6.10;99.90;;;;;;5015007;28;20042;-72
2022/11/18 07:58:54;;;;;;;55.90;29.17;;;6.10;99.90;;;;;;5015112;28;20049;-72
2022/11/18 08:01:22;;;;;;;43.78;25.45;;;6.10;99.90;;;;;;5014843;28;20061;-72
2022/11/18 08:03:48;;;;;;;46.60;26.38;;;6.10;99.90;;;;;;5034855;28;20041;-73
2022/11/18 08:06:16;;;;;;;43.88;24.33;;;6.10;99.90;;;;;;5035578;28;20194;-72
2022/11/18 08:08:42;;;;;;;40.58;23.67;;;6.20;99.90;;;;;;5027347;28;20062;-72
2022/11/18 08:11:11;;;;;;;39.25;24.05;;;6.10;99.90;;;;;;5034335;28;20056;-72
2022/11/18 08:13:36;;;;;;;39.63;23.48;;;6.10;99.90;;;;;;5035092;28;20041;-72
2022/11/18 08:16:03;;;;;;;37.63;23.25;;;6.10;99.90;;;;;;5038455;28;20161;-73
2022/11/18 08:18:31;;;;;;;31.77;21.70;;;6.10;99.90;;;;;;5038289;28;20050;-73
2022/11/18 08:21:02;;;;;;;40.47;23.27;;;6.10;99.90;;;;;;5038452;28;20056;-73
2022/11/18 08:23:27;;;;;;;37.72;23.92;;;6.10;99.90;;;;;;5026991;28;20050;-73
2022/11/18 08:26:04;;;;;;;35.92;22.08;;;6.30;99.90;;;;;;5019121;28;20332;-74
2022/11/18 08:28:30;;;;;;;32.97;20.67;;;6.10;99.90;;;;;;5019035;28;20049;-72
2022/11/18 08:30:56;;;;;;;34.42;21.50;;;6.10;99.90;;;;;;5018890;28;20046;-73
2022/11/18 08:33:21;;;;;;;30.88;20.20;;;6.10;99.90;;;;;;5038395;28;20041;-73
2022/11/18 08:35:47;;;;;;;31.02;20.73;;;6.10;99.90;;;;;;5038096;28;20140;-72
2022/11/18 08:38:13;;;;;;;31.48;20.35;;;6.10;99.90;;;;;;5019997;28;20061;-73
2022/11/18 08:40:43;;;;;;;29.48;19.80;;;6.10;99.90;;;;;;5038032;28;20446;-72
2022/11/18 08:43:10;;;;;;;28.42;18.42;;;6.10;99.90;;;;;;5038356;28;20045;-73
2022/11/18 08:45:39;;;;;;;30.40;20.15;;;6.20;99.90;;;;;;5038782;28;20350;-73
2022/11/18 08:48:05;;;;;;;33.45;20.35;;;6.20;99.90;;;;;;5037965;28;20089;-73
2022/11/18 08:50:31;;;;;;;34.10;21.48;;;6.20;99.90;;;;;;5038364;28;20101;-73
2022/11/18 08:52:56;;;;;;;32.40;19.92;;;6.20;99.90;;;;;;5031748;28;20045;-73
2022/11/18 08:55:22;;;;;;;32.83;21.50;;;6.20;99.90;;;;;;5018397;28;20046;-73
2022/11/18 08:57:48;;;;;;;33.78;19.33;;;6.20;99.90;;;;;;5018356;28;20454;-72
2022/11/18 09:00:14;;;;;;;29.23;20.20;;;6.20;99.90;;;;;;5037852;28;20041;-74
2022/11/18 09:02:40;;;;;;;31.90;20.77;;;6.20;99.90;;;;;;5038344;28;20049;-73
2022/11/18 09:05:06;;;;;;;30.08;20.17;;;6.20;99.90;;;;;;5037694;28;20068;-73
2022/11/18 09:07:31;;;;;;;29.30;18.85;;;6.20;99.90;;;;;;5037176;28;20120;-73
2022/11/18 09:09:57;;;;;;;26.05;18.77;;;6.20;99.90;;;;;;5037437;28;20045;-72
2022/11/18 09:12:23;;;;;;;29.50;18.33;;;6.20;99.90;;;;;;5035861;28;20358;-72
2022/11/18 09:14:49;;;;;;;29.42;18.67;;;6.20;99.90;;;;;;5037660;28;20049;-73
2022/11/18 09:17:14;;;;;;;28.77;18.90;;;6.20;99.90;;;;;;5038227;28;20060;-73
2022/11/18 09:19:40;;;;;;;31.65;17.70;;;6.20;99.90;;;;;;5037873;28;20128;-73
2022/11/18 09:22:06;;;;;;;30.10;18.50;;;6.20;99.90;;;;;;5037368;28;20041;-73
2022/11/18 09:24:32;;;;;;;27.48;18.65;;;6.20;99.90;;;;;;5037932;28;20330;-73
2022/11/18 09:27:01;;;;;;;29.08;19.23;;;6.20;99.90;;;;;;5036350;28;20099;-73
2022/11/18 09:29:26;;;;;;;26.75;18.40;;;6.10;99.90;;;;;;5036803;28;20043;-72
2022/11/18 09:31:52;;;;;;;33.60;20.23;;;6.20;99.90;;;;;;5037208;28;20358;-73
2022/11/18 09:34:18;;;;;;;31.70;20.30;;;6.10;99.90;;;;;;5037246;28;20045;-74
2022/11/18 09:36:44;;;;;;;26.98;19.20;;;6.10;99.90;;;;;;5037521;28;20056;-73
2022/11/18 09:39:10;;;;;;;29.40;20.70;;;6.10;99.90;;;;;;5020327;28;20458;-73
2022/11/18 09:41:47;;;;;;;29.13;20.30;;;6.10;99.90;;;;;;5037328;28;20080;-73
2022/11/18 09:44:19;;;;;;;34.42;19.85;;;6.10;99.90;;;;;;5001045;28;20060;-73
2022/11/18 09:46:59;;;;;;;27.75;18.65;;;6.10;99.90;;;;;;5017067;28;20120;-70
2022/11/18 09:49:29;;;;;;;29.67;19.70;;;6.10;99.90;;;;;;4983854;28;20057;-69
2022/11/18 09:51:56;;;;;;;31.55;21.08;;;6.10;99.90;;;;;;4999932;28;20034;-70
2022/11/18 09:54:25;;;;;;;44.50;23.92;;;6.10;99.90;;;;;;5017386;28;20064;-73
2022/11/18 09:56:52;;;;;;;36.97;22.88;;;6.10;99.90;;;;;;5017583;28;20033;-70
2022/11/18 09:59:21;;;;;;;39.03;22.98;;;6.10;99.90;;;;;;5036657;28;20046;-69
2022/11/18 10:01:49;;;;;;;39.58;21.35;;;6.10;99.90;;;;;;5036241;28;20064;-70
2022/11/18 10:04:17;;;;;;;36.90;22.50;;;6.10;99.90;;;;;;5037008;28;20100;-71
2022/11/18 10:06:44;;;;;;;41.47;22.50;;;6.10;99.90;;;;;;5036341;28;20137;-70
2022/11/18 10:09:31;;;;;;;44.28;24.42;;;6.00;99.90;;;;;;5036357;28;20057;-70
2022/11/18 10:12:33;;;;;;;47.17;25.10;;;6.00;99.90;;;;;;5036477;28;20057;-70
2022/11/18 10:15:20;;;;;;;48.58;24.45;;;5.90;99.90;;;;;;5036799;28;20128;-72
2022/11/18 10:18:06;;;;;;;49.60;26.88;;;5.90;99.90;;;;;;5036335;28;20053;-73
2022/11/18 10:20:51;;;;;;;55.58;27.52;;;5.80;99.90;;;;;;5034751;28;20100;-73
2022/11/18 10:23:20;;;;;;;63.03;29.50;;;5.80;99.90;;;;;;5035985;28;20049;-73
2022/11/18 10:25:45;;;;;;;53.67;27.92;;;5.80;99.90;;;;;;5036554;28;20060;-73
2022/11/18 10:28:24;;;;;;;76.10;27.85;;;5.70;99.90;;;;;;5036185;28;20045;-73
2022/11/18 10:30:50;;;;;;;42.70;25.45;;;5.70;99.90;;;;;;5018448;28;20049;-73
2022/11/18 10:33:27;;;;;;;54.75;28.33;;;5.80;99.90;;;;;;5035899;28;20080;-72
2022/11/18 10:36:33;;;;;;;47.25;27.08;;;5.70;99.90;;;;;;5036336;28;20046;-73
2022/11/18 10:39:07;;;;;;;53.70;27.65;;;5.60;99.90;;;;;;4955828;28;20051;-72
2022/11/18 10:41:50;;;;;;;60.38;29.85;;;5.60;99.90;;;;;;4955807;29;20047;-71
2022/11/18 10:44:38;;;;;;;59.13;30.15;;;5.60;99.90;;;;;;4981786;28;20136;-73
2022/11/18 10:47:26;;;;;;;60.63;28.73;;;5.60;99.90;;;;;;4996415;28;20089;-72
2022/11/18 10:49:54;;;;;;;62.38;29.60;;;5.60;99.90;;;;;;4999709;28;20430;-72
2022/11/18 10:52:20;;;;;;;81.97;33.35;;;5.60;99.90;;;;;;5036112;28;20361;-72
2022/11/18 10:55:13;;;;;;;80.55;33.72;;;5.80;99.90;;;;;;5035843;28;20049;-72
2022/11/18 10:57:44;;;;;;;68.20;31.05;;;5.60;99.90;;;;;;5035346;28;20037;-72
2022/11/18 11:00:44;;;;;;;64.40;32.35;;;5.60;99.90;;;;;;5036129;28;20405;-72
2022/11/18 11:03:40;;;;;;;72.85;32.72;;;5.50;99.90;;;;;;4982727;28;20049;-72
2022/11/18 11:06:22;;;;;;;78.88;34.78;;;5.50;99.90;;;;;;5033112;28;20366;-72
2022/11/18 11:08:53;;;;;;;74.68;35.65;;;5.40;99.90;;;;;;5035501;28;20155;-72
2022/11/18 11:11:32;;;;;;;77.15;35.00;;;5.40;99.90;;;;;;5035538;28;20064;-72
2022/11/18 11:14:13;;;;;;;73.70;37.05;;;5.40;99.90;;;;;;5018954;28;20076;-72
2022/11/18 11:16:58;;;;;;;86.40;38.28;;;5.30;99.90;;;;;;5035348;28;20045;-72
2022/11/18 11:19:30;;;;;;;74.78;37.42;;;5.30;99.90;;;;;;5033595;28;20469;-73
2022/11/18 11:21:56;;;;;;;81.60;38.55;;;5.30;99.90;;;;;;5015742;28;20121;-73
2022/11/18 11:24:25;;;;;;;110.68;40.60;;;5.20;99.90;;;;;;5015732;28;20124;-73
2022/11/18 11:27:04;;;;;;;82.68;39.28;;;5.20;99.90;;;;;;5015970;28;20339;-73
2022/11/18 11:29:40;;;;;;;77.20;37.38;;;5.20;99.90;;;;;;5015621;28;20045;-74
2022/11/18 11:32:19;;;;;;;86.53;37.65;;;5.20;99.90;;;;;;5015529;28;20045;-73
2022/11/18 11:35:16;;;;;;;83.60;38.67;;;5.30;99.90;;;;;;5015219;28;20034;-73
2022/11/18 11:37:53;;;;;;;76.88;37.53;;;5.20;99.90;;;;;;5011361;28;20057;-73
2022/11/18 11:40:41;;;;;;;93.75;39.90;;;5.20;99.90;;;;;;5016046;28;20054;-73
2022/11/18 11:43:31;;;;;;;74.53;37.22;;;5.10;99.90;;;;;;5015473;28;20037;-73
2022/11/18 11:46:18;;;;;;;90.85;40.28;;;5.00;99.90;;;;;;5034683;28;20505;-73
2022/11/18 11:48:57;;;;;;;94.80;41.55;;;5.00;99.90;;;;;;5034850;28;20469;-73
2022/11/18 11:51:52;;;;;;;64.78;35.30;;;5.00;99.90;;;;;;4995683;28;20133;-74
2022/11/18 11:54:51;;;;;;;55.67;31.42;;;5.10;99.90;;;;;;4995522;28;20050;-73
2022/11/18 11:57:19;;;;;;;67.78;32.40;;;5.00;99.90;;;;;;4995606;28;20133;-73
2022/11/18 12:00:02;;;;;;;56.95;29.55;;;5.00;99.90;;;;;;4995774;28;20042;-73
2022/11/18 12:02:46;;;;;;;58.30;31.03;;;5.00;99.90;;;;;;4961443;28;20084;-73
2022/11/18 12:05:20;;;;;;;72.30;33.47;;;4.90;99.90;;;;;;5023564;28;20049;-74
2022/11/18 12:08:08;;;;;;;59.97;32.53;;;4.90;99.90;;;;;;5035307;28;20094;-74
2022/11/18 12:10:50;;;;;;;55.90;33.00;;;4.90;99.90;;;;;;5034435;28;20104;-74
2022/11/18 12:13:59;;;;;;;71.13;35.10;;;4.80;99.90;;;;;;5034682;28;20041;-73
2022/11/18 12:16:50;;;;;;;61.30;33.45;;;4.90;99.90;;;;;;4935336;29;20048;-73
2022/11/18 12:19:21;;;;;;;69.68;35.63;;;5.00;99.90;;;;;;5014172;28;20054;-73
2022/11/18 12:21:53;;;;;;;59.97;31.35;;;5.40;99.90;;;;;;5017007;28;20057;-74
2022/11/18 12:24:23;;;;;;;56.75;31.95;;;4.80;99.90;;;;;;5034842;28;20056;-73
2022/11/18 12:26:50;;;;;;;63.25;32.95;;;4.80;99.90;;;;;;5017513;28;20080;-73
2022/11/18 12:29:18;;;;;;;61.97;31.80;;;4.80;99.90;;;;;;4983455;28;20127;-74
2022/11/18 12:31:53;;;;;;;66.07;33.20;;;4.80;99.90;;;;;;5017419;28;20046;-74
2022/11/18 12:34:30;;;;;;;66.13;32.47;;;4.70;99.90;;;;;;5023165;28;20049;-73
2022/11/18 12:36:55;;;;;;;53.83;31.42;;;4.80;99.90;;;;;;5027097;28;20054;-73
2022/11/18 12:39:24;;;;;;;57.13;31.48;;;4.70;99.90;;;;;;5035031;28;20136;-73
2022/11/18 12:44:34;;;;;;;72.13;36.20;;;4.70;99.90;;;;;;5034327;28;20071;-74
2022/11/18 12:47:04;;;;;;;65.07;33.58;;;4.70;99.90;;;;;;5034542;28;20041;-73
2022/11/18 12:49:30;;;;;;;95.53;40.00;;;4.70;99.90;;;;;;5034713;28;20413;-74
2022/11/18 12:52:04;;;;;;;72.13;37.95;;;4.60;99.90;;;;;;5034175;28;20046;-73
2022/11/18 12:54:33;;;;;;;98.22;41.13;;;4.70;99.90;;;;;;5034306;28;20056;-73
2022/11/18 12:57:21;;;;;;;125.35;44.67;;;4.70;99.90;;;;;;5034672;28;20071;-73
2022/11/18 12:59:47;;;;;;;74.07;35.60;;;4.70;99.90;;;;;;5034579;28;20044;-73
2022/11/18 13:02:27;;;;;;;93.45;37.95;;;4.70;99.90;;;;;;5036395;28;20414;-73
2022/11/18 13:05:03;;;;;;;64.20;34.08;;;4.70;99.90;;;;;;5037808;28;20069;-74
2022/11/18 13:10:25;;;;;;;73.53;34.58;;;4.60;99.90;;;;;;4978798;28;20054;-73
2022/11/18 13:12:51;;;;;;;70.80;36.33;;;4.80;99.90;;;;;;4979066;28;20042;-73
2022/11/18 13:18:20;;;;;;;76.70;37.50;;;4.70;99.90;;;;;;4978932;28;20438;-74
2022/11/18 13:23:50;;;;;;;104.90;44.65;;;4.60;99.90;;;;;;4996566;28;20081;-73